createdAt,value
2022-08-17T00:00:33.312Z,39.55
2022-08-17T00:01:14.867Z,39.43
2022-08-17T00:02:22.439Z,38.71
2022-08-17T00:03:14.811Z,38.46
2022-08-17T00:04:13.796Z,38.95
2022-08-17T00:05:13.795Z,37.79
2022-08-17T00:06:13.797Z,38.43
2022-08-17T00:07:13.788Z,43.37
2022-08-17T00:08:13.769Z,39.44
2022-08-17T00:09:18.398Z,38.40
2022-08-17T00:10:14.742Z,38.68
2022-08-17T00:11:13.743Z,38.18
2022-08-17T00:12:40.524Z,38.66
2022-08-17T00:13:14.723Z,38.21
2022-08-17T00:14:13.692Z,37.69
2022-08-17T00:15:13.698Z,38.22
2022-08-17T00:16:13.694Z,39.18
2022-08-17T00:17:13.693Z,41.30
2022-08-17T00:18:58.327Z,39.89
2022-08-17T00:19:14.645Z,40.85
2022-08-17T00:20:13.645Z,38.70
2022-08-17T00:21:13.635Z,38.96
2022-08-17T00:22:32.715Z,39.60
2022-08-17T00:23:14.625Z,45.45
2022-08-17T00:24:13.621Z,41.14
2022-08-17T00:25:13.587Z,39.47
2022-08-17T00:26:13.575Z,41.71
2022-08-17T00:27:13.579Z,41.15
2022-08-17T00:28:13.584Z,39.87
2022-08-17T00:29:19.629Z,40.45
2022-08-17T00:30:14.535Z,39.62
2022-08-17T00:31:13.550Z,39.94
2022-08-17T00:33:15.648Z,40.32
2022-08-17T00:33:17.024Z,40.50
2022-08-17T00:34:13.531Z,40.37
2022-08-17T00:35:13.533Z,40.46
2022-08-17T00:36:13.508Z,39.78
2022-08-17T00:37:13.517Z,38.87
2022-08-17T00:38:13.480Z,39.46
2022-08-17T00:39:13.474Z,39.68
2022-08-17T00:40:13.539Z,39.67
2022-08-17T00:41:13.445Z,39.18
2022-08-17T00:42:13.458Z,40.38
2022-08-17T00:43:13.457Z,41.55
2022-08-17T00:44:13.432Z,39.88
2022-08-17T00:45:13.413Z,38.26
2022-08-17T00:46:13.401Z,38.09
2022-08-17T00:47:13.399Z,38.93
2022-08-17T00:48:29.991Z,41.18
2022-08-17T00:49:14.397Z,40.93
2022-08-17T00:50:13.371Z,40.88
2022-08-17T00:51:13.385Z,40.73
2022-08-17T00:52:13.360Z,40.23
2022-08-17T00:53:13.346Z,41.12
2022-08-17T00:54:13.354Z,42.69
2022-08-17T00:55:13.331Z,42.10
2022-08-17T00:56:13.338Z,41.27
2022-08-17T00:57:13.314Z,39.32
2022-08-17T00:58:13.287Z,40.56
2022-08-17T00:59:13.307Z,43.76
2022-08-17T01:00:13.274Z,43.44
2022-08-17T01:01:13.336Z,41.23
2022-08-17T01:02:14.253Z,42.81
2022-08-17T01:03:13.257Z,39.73
2022-08-17T01:04:13.209Z,40.22
2022-08-17T01:05:13.206Z,41.68
2022-08-17T01:06:13.217Z,40.98
2022-08-17T01:07:13.229Z,40.84
2022-08-17T01:08:13.171Z,40.80
2022-08-17T01:09:13.174Z,41.38
2022-08-17T01:10:57.452Z,44.35
2022-08-17T01:11:14.150Z,40.91
2022-08-17T01:12:13.178Z,40.38
2022-08-17T01:13:13.123Z,40.97
2022-08-17T01:14:13.140Z,40.18
2022-08-17T01:15:13.127Z,38.99
2022-08-17T01:16:13.109Z,37.99
2022-08-17T01:17:13.116Z,39.74
2022-08-17T01:18:13.061Z,42.79
2022-08-17T01:19:13.048Z,38.80
2022-08-17T01:20:13.049Z,39.22
2022-08-17T01:21:13.034Z,39.96
2022-08-17T01:22:13.081Z,38.59
2022-08-17T01:23:13.041Z,39.60
2022-08-17T01:24:14.021Z,40.03
2022-08-17T01:25:13.024Z,39.36
2022-08-17T01:26:13.025Z,40.36
2022-08-17T01:27:13.020Z,43.37
2022-08-17T01:28:12.978Z,42.06
2022-08-17T01:29:13.957Z,42.06
2022-08-17T01:30:57.810Z,41.15
2022-08-17T01:31:13.952Z,41.45
2022-08-17T01:32:12.959Z,41.27
2022-08-17T01:33:12.943Z,40.27
2022-08-17T01:34:12.931Z,43.12
2022-08-17T01:35:12.922Z,39.95
2022-08-17T01:36:12.909Z,40.59
2022-08-17T01:37:12.923Z,39.99
2022-08-17T01:38:12.878Z,41.33
2022-08-17T01:39:12.889Z,41.67
2022-08-17T01:40:12.928Z,41.05
2022-08-17T01:41:12.851Z,41.35
2022-08-17T01:42:12.848Z,40.19
2022-08-17T01:43:12.829Z,39.88
2022-08-17T01:44:12.829Z,40.66
2022-08-17T01:45:12.811Z,39.60
2022-08-17T01:46:12.803Z,43.76
2022-08-17T01:47:12.809Z,49.84
2022-08-17T01:48:12.781Z,40.77
2022-08-17T01:49:12.773Z,41.22
2022-08-17T01:50:12.763Z,42.02
2022-08-17T01:51:12.759Z,40.47
2022-08-17T01:52:12.750Z,44.68
2022-08-17T01:53:12.726Z,40.73
2022-08-17T01:54:12.738Z,40.74
2022-08-17T01:55:12.716Z,41.10
2022-08-17T01:56:12.703Z,43.93
2022-08-17T01:57:12.716Z,42.77
2022-08-17T01:58:12.701Z,43.83
2022-08-17T01:59:12.668Z,43.52
2022-08-17T02:00:12.646Z,43.15
2022-08-17T02:01:12.775Z,42.95
2022-08-17T02:02:12.690Z,43.37
2022-08-17T02:03:13.640Z,41.92
2022-08-17T02:04:12.628Z,41.42
2022-08-17T02:05:12.632Z,42.75
2022-08-17T02:06:26.954Z,44.33
2022-08-17T02:07:13.592Z,44.02
2022-08-17T02:08:19.779Z,42.60
2022-08-17T02:09:16.461Z,41.94
2022-08-17T02:10:18.239Z,45.14
2022-08-17T02:11:13.548Z,46.42
2022-08-17T02:12:37.624Z,41.62
2022-08-17T02:13:13.515Z,41.08
2022-08-17T02:14:12.498Z,40.38
2022-08-17T02:15:12.527Z,40.19
2022-08-17T02:16:12.513Z,39.88
2022-08-17T02:17:12.532Z,40.62
2022-08-17T02:18:12.480Z,42.24
2022-08-17T02:19:12.490Z,41.90
2022-08-17T02:20:12.467Z,41.13
2022-08-17T02:21:12.453Z,41.87
2022-08-17T02:22:12.447Z,42.07
2022-08-17T02:23:12.442Z,42.72
2022-08-17T02:24:12.434Z,42.82
2022-08-17T02:25:12.424Z,42.76
2022-08-17T02:26:26.081Z,41.67
2022-08-17T02:27:13.389Z,42.77
2022-08-17T02:28:12.393Z,42.14
2022-08-17T02:29:12.376Z,43.77
2022-08-17T02:30:59.264Z,43.74
2022-08-17T02:31:13.370Z,43.11
2022-08-17T02:32:12.347Z,42.62
2022-08-17T02:33:13.385Z,43.36
2022-08-17T02:34:12.341Z,43.12
2022-08-17T02:35:12.323Z,41.67
2022-08-17T02:36:12.301Z,42.88
2022-08-17T02:37:12.287Z,42.56
2022-08-17T02:38:12.284Z,42.93
2022-08-17T02:39:12.286Z,42.19
2022-08-17T02:40:12.312Z,42.72
2022-08-17T02:41:12.255Z,43.50
2022-08-17T02:42:12.246Z,44.06
2022-08-17T02:43:12.246Z,46.03
2022-08-17T02:44:12.221Z,46.21
2022-08-17T02:45:12.233Z,47.24
2022-08-17T02:46:12.197Z,43.74
2022-08-17T02:47:12.205Z,44.06
2022-08-17T02:48:12.191Z,47.49
2022-08-17T02:49:12.157Z,47.29
2022-08-17T02:50:12.192Z,42.64
2022-08-17T02:51:12.128Z,44.84
2022-08-17T02:52:12.156Z,44.70
2022-08-17T02:53:12.166Z,46.01
2022-08-17T02:54:41.553Z,45.60
2022-08-17T02:55:13.130Z,45.00
2022-08-17T02:56:12.141Z,44.61
2022-08-17T02:57:12.113Z,48.75
2022-08-17T02:58:12.105Z,44.45
2022-08-17T02:59:12.099Z,45.12
2022-08-17T03:00:12.065Z,45.03
2022-08-17T03:01:12.092Z,45.30
2022-08-17T03:02:12.031Z,45.00
2022-08-17T03:03:12.040Z,43.78
2022-08-17T03:04:12.017Z,42.95
2022-08-17T03:05:12.013Z,43.41
2022-08-17T03:06:12.026Z,43.26
2022-08-17T03:07:11.985Z,47.02
2022-08-17T03:08:13.371Z,44.20
2022-08-17T03:09:11.967Z,46.29
2022-08-17T03:10:11.974Z,43.92
2022-08-17T03:11:11.972Z,47.06
2022-08-17T03:12:11.951Z,44.56
2022-08-17T03:13:11.967Z,49.22
2022-08-17T03:14:11.955Z,42.95
2022-08-17T03:15:11.919Z,49.43
2022-08-17T03:16:11.898Z,43.51
2022-08-17T03:17:17.066Z,48.18
2022-08-17T03:18:19.123Z,47.01
2022-08-17T03:19:12.884Z,48.04
2022-08-17T03:20:11.875Z,45.73
2022-08-17T03:21:11.878Z,51.57
2022-08-17T03:22:35.348Z,49.07
2022-08-17T03:23:12.868Z,46.37
2022-08-17T03:24:11.823Z,46.83
2022-08-17T03:25:11.835Z,49.64
2022-08-17T03:26:15.246Z,51.36
2022-08-17T03:27:11.799Z,49.83
2022-08-17T03:28:11.797Z,44.85
2022-08-17T03:29:11.789Z,45.38
2022-08-17T03:30:11.769Z,48.71
2022-08-17T03:31:11.789Z,52.47
2022-08-17T03:32:11.736Z,45.46
2022-08-17T03:33:11.744Z,45.08
2022-08-17T03:34:11.716Z,45.66
2022-08-17T03:35:11.734Z,50.88
2022-08-17T03:36:11.695Z,47.77
2022-08-17T03:37:11.713Z,52.47
2022-08-17T03:38:11.706Z,46.17
2022-08-17T03:39:11.671Z,47.23
2022-08-17T03:40:11.715Z,50.36
2022-08-17T03:41:11.645Z,46.11
2022-08-17T03:42:14.311Z,49.24
2022-08-17T03:43:12.642Z,48.98
2022-08-17T03:44:11.613Z,46.48
2022-08-17T03:45:15.051Z,45.07
2022-08-17T03:46:27.645Z,49.45
2022-08-17T03:47:12.590Z,47.46
2022-08-17T03:48:11.618Z,45.58
2022-08-17T03:49:11.605Z,45.47
2022-08-17T03:50:11.569Z,45.81
2022-08-17T03:51:14.765Z,47.19
2022-08-17T03:52:12.568Z,46.51
2022-08-17T03:53:11.580Z,50.48
2022-08-17T03:54:11.514Z,47.66
2022-08-17T03:55:11.511Z,49.23
2022-08-17T03:56:11.509Z,52.07
2022-08-17T03:57:11.528Z,46.26
2022-08-17T03:58:11.521Z,49.07
2022-08-17T03:59:20.896Z,46.76
2022-08-17T04:00:12.450Z,46.84
2022-08-17T04:01:11.497Z,50.13
2022-08-17T04:02:11.491Z,45.41
2022-08-17T04:03:11.441Z,47.88
2022-08-17T04:04:11.404Z,48.32
2022-08-17T04:05:11.388Z,46.30
2022-08-17T04:06:11.406Z,47.93
2022-08-17T04:07:11.381Z,50.07
2022-08-17T04:08:11.384Z,47.44
2022-08-17T04:09:11.371Z,52.19
2022-08-17T04:10:11.357Z,45.29
2022-08-17T04:11:11.345Z,48.20
2022-08-17T04:12:11.342Z,49.68
2022-08-17T04:13:11.359Z,46.67
2022-08-17T04:14:11.324Z,45.60
2022-08-17T04:15:11.312Z,44.26
2022-08-17T04:16:11.294Z,44.79
2022-08-17T04:17:11.292Z,44.70
2022-08-17T04:18:11.283Z,46.59
2022-08-17T04:19:11.267Z,44.07
2022-08-17T04:20:11.252Z,47.12
2022-08-17T04:21:11.256Z,52.01
2022-08-17T04:22:11.239Z,51.65
2022-08-17T04:23:12.235Z,46.61
2022-08-17T04:24:11.215Z,47.93
2022-08-17T04:25:11.220Z,45.17
2022-08-17T04:26:11.214Z,50.15
2022-08-17T04:27:12.191Z,44.97
2022-08-17T04:28:16.238Z,48.99
2022-08-17T04:29:12.250Z,54.41
2022-08-17T04:30:11.136Z,45.23
2022-08-17T04:31:11.157Z,53.73
2022-08-17T04:32:11.142Z,47.13
2022-08-17T04:33:11.247Z,51.01
2022-08-17T04:34:11.124Z,49.90
2022-08-17T04:35:11.122Z,48.61
2022-08-17T04:36:11.085Z,50.44
2022-08-17T04:37:11.097Z,47.64
2022-08-17T04:38:11.086Z,48.13
2022-08-17T04:39:11.078Z,54.77
2022-08-17T04:40:11.140Z,48.66
2022-08-17T04:41:11.062Z,52.79
2022-08-17T04:42:11.027Z,51.06
2022-08-17T04:43:11.893Z,49.82
2022-08-17T04:44:11.010Z,51.39
2022-08-17T04:45:10.999Z,51.64
2022-08-17T04:46:11.011Z,51.59
2022-08-17T04:47:10.999Z,50.03
2022-08-17T04:48:11.032Z,52.37
2022-08-17T04:49:11.970Z,52.88
2022-08-17T04:50:10.949Z,49.74
2022-08-17T04:51:10.989Z,47.11
2022-08-17T04:52:11.739Z,50.93
2022-08-17T04:53:11.909Z,52.59
2022-08-17T04:54:10.887Z,52.00
2022-08-17T04:55:10.906Z,54.58
2022-08-17T04:56:11.890Z,45.20
2022-08-17T04:57:11.875Z,52.37
2022-08-17T04:58:10.882Z,51.26
2022-08-17T04:59:10.873Z,50.10
2022-08-17T05:00:10.859Z,48.83
2022-08-17T05:01:10.890Z,49.89
2022-08-17T05:02:10.871Z,50.80
2022-08-17T05:03:10.832Z,49.98
2022-08-17T05:04:21.048Z,46.37
2022-08-17T05:05:11.803Z,51.89
2022-08-17T05:06:10.803Z,50.54
2022-08-17T05:07:10.777Z,49.91
2022-08-17T05:08:10.805Z,44.49
2022-08-17T05:09:10.769Z,46.90
2022-08-17T05:10:10.767Z,46.26
2022-08-17T05:11:10.800Z,48.56
2022-08-17T05:12:10.742Z,47.57
2022-08-17T05:13:10.754Z,48.46
2022-08-17T05:14:10.724Z,44.54
2022-08-17T05:15:10.706Z,45.11
2022-08-17T05:16:10.670Z,49.80
2022-08-17T05:17:11.195Z,51.31
2022-08-17T05:18:10.671Z,48.95
2022-08-17T05:19:10.671Z,51.30
2022-08-17T05:20:10.651Z,51.03
2022-08-17T05:21:10.669Z,47.12
2022-08-17T05:22:10.633Z,51.45
2022-08-17T05:23:10.623Z,50.49
2022-08-17T05:24:17.637Z,56.08
2022-08-17T05:25:11.585Z,51.65
2022-08-17T05:26:11.691Z,55.29
2022-08-17T05:27:14.302Z,54.60
2022-08-17T05:28:11.609Z,47.23
2022-08-17T05:29:10.614Z,47.73
2022-08-17T05:30:10.806Z,51.63
2022-08-17T05:31:10.546Z,56.36
2022-08-17T05:32:39.173Z,48.14
2022-08-17T05:33:11.548Z,50.85
2022-08-17T05:34:10.542Z,50.24
2022-08-17T05:35:10.506Z,51.83
2022-08-17T05:36:10.506Z,48.46
2022-08-17T05:37:11.525Z,52.16
2022-08-17T05:38:10.498Z,52.13
2022-08-17T05:39:10.720Z,49.28
2022-08-17T05:40:11.493Z,48.20
2022-08-17T05:41:10.460Z,52.99
2022-08-17T05:42:10.448Z,52.77
2022-08-17T05:43:10.457Z,49.54
2022-08-17T05:44:10.430Z,49.91
2022-08-17T05:45:10.416Z,48.34
2022-08-17T05:46:10.408Z,49.01
2022-08-17T05:47:10.412Z,46.77
2022-08-17T05:48:10.415Z,49.84
2022-08-17T05:49:10.397Z,50.55
2022-08-17T05:50:10.397Z,51.02
2022-08-17T05:51:10.386Z,52.60
2022-08-17T05:52:10.385Z,48.30
2022-08-17T05:53:10.384Z,47.78
2022-08-17T05:54:10.322Z,48.19
2022-08-17T05:55:10.342Z,48.92
2022-08-17T05:56:29.138Z,46.98
2022-08-17T05:57:12.309Z,50.88
2022-08-17T05:58:10.294Z,51.76
2022-08-17T05:59:10.267Z,47.14
2022-08-17T06:00:10.250Z,48.96
2022-08-17T06:01:10.274Z,47.29
2022-08-17T06:02:10.251Z,45.70
2022-08-17T06:03:10.277Z,46.45
2022-08-17T06:04:10.238Z,43.18
2022-08-17T06:05:10.251Z,48.06
2022-08-17T06:06:10.195Z,44.36
2022-08-17T06:07:10.222Z,46.80
2022-08-17T06:08:10.236Z,48.23
2022-08-17T06:09:10.184Z,46.94
2022-08-17T06:10:10.202Z,48.70
2022-08-17T06:11:10.189Z,45.87
2022-08-17T06:12:14.279Z,46.95
2022-08-17T06:13:11.220Z,51.28
2022-08-17T06:14:10.145Z,45.55
2022-08-17T06:15:10.172Z,52.42
2022-08-17T06:16:33.610Z,49.15
2022-08-17T06:17:11.128Z,49.63
2022-08-17T06:18:10.112Z,46.79
2022-08-17T06:19:10.145Z,48.66
2022-08-17T06:20:10.105Z,47.31
2022-08-17T06:21:10.093Z,51.45
2022-08-17T06:22:11.123Z,48.76
2022-08-17T06:23:10.082Z,50.04
2022-08-17T06:24:10.069Z,44.67
2022-08-17T06:25:10.912Z,44.65
2022-08-17T06:26:10.031Z,49.78
2022-08-17T06:27:10.032Z,50.27
2022-08-17T06:28:10.028Z,53.46
2022-08-17T06:29:10.054Z,46.68
2022-08-17T06:30:10.970Z,50.29
2022-08-17T06:31:09.977Z,51.60
2022-08-17T06:32:09.968Z,45.60
2022-08-17T06:33:09.978Z,49.43
2022-08-17T06:34:09.965Z,47.30
2022-08-17T06:35:10.929Z,47.89
2022-08-17T06:36:09.973Z,47.03
2022-08-17T06:37:09.916Z,42.88
2022-08-17T06:38:09.925Z,41.93
2022-08-17T06:39:10.918Z,49.11
2022-08-17T06:40:09.953Z,46.71
2022-08-17T06:41:09.882Z,50.06
2022-08-17T06:42:09.863Z,50.74
2022-08-17T06:43:10.982Z,48.34
2022-08-17T06:44:09.878Z,42.54
2022-08-17T06:45:09.825Z,45.31
2022-08-17T06:46:09.816Z,42.14
2022-08-17T06:47:09.815Z,48.05
2022-08-17T06:48:09.799Z,50.26
2022-08-17T06:49:09.808Z,45.08
2022-08-17T06:50:09.793Z,48.75
2022-08-17T06:51:09.768Z,53.05
2022-08-17T06:52:09.800Z,47.27
2022-08-17T06:53:09.759Z,42.09
2022-08-17T06:54:09.786Z,41.67
2022-08-17T06:55:09.733Z,43.12
2022-08-17T06:56:10.775Z,49.29
2022-08-17T06:57:09.711Z,41.31
2022-08-17T06:58:15.562Z,43.52
2022-08-17T06:59:10.713Z,39.94
2022-08-17T07:00:09.695Z,44.38
2022-08-17T07:01:09.825Z,45.74
2022-08-17T07:02:09.880Z,48.56
2022-08-17T07:03:10.118Z,49.38
2022-08-17T07:04:12.178Z,51.82
2022-08-17T07:05:09.666Z,43.65
2022-08-17T07:06:09.704Z,48.84
2022-08-17T07:07:09.690Z,52.74
2022-08-17T07:08:09.614Z,48.51
2022-08-17T07:09:09.628Z,44.23
2022-08-17T07:10:09.616Z,39.50
2022-08-17T07:11:10.381Z,42.47
2022-08-17T07:12:09.597Z,45.76
2022-08-17T07:13:09.568Z,41.85
2022-08-17T07:14:12.804Z,52.17
2022-08-17T07:15:10.545Z,47.72
2022-08-17T07:16:09.556Z,41.73
2022-08-17T07:17:09.513Z,43.33
2022-08-17T07:18:09.534Z,41.63
2022-08-17T07:19:10.925Z,37.43
2022-08-17T07:20:09.508Z,48.37
2022-08-17T07:21:11.087Z,47.84
2022-08-17T07:22:09.537Z,39.68
2022-08-17T07:23:09.471Z,38.89
2022-08-17T07:24:09.500Z,43.21
2022-08-17T07:25:10.465Z,46.15
2022-08-17T07:26:10.437Z,40.41
2022-08-17T07:27:09.442Z,38.35
2022-08-17T07:28:09.447Z,46.87
2022-08-17T07:29:09.445Z,43.08
2022-08-17T07:30:10.875Z,39.11
2022-08-17T07:31:10.420Z,45.35
2022-08-17T07:32:09.428Z,45.94
2022-08-17T07:33:09.424Z,43.89
2022-08-17T07:34:09.415Z,39.68
2022-08-17T07:35:10.894Z,42.89
2022-08-17T07:36:09.417Z,46.15
2022-08-17T07:37:09.315Z,44.76
2022-08-17T07:38:24.988Z,43.07
2022-08-17T07:39:10.397Z,42.53
2022-08-17T07:40:15.039Z,47.75
2022-08-17T07:41:10.338Z,37.05
2022-08-17T07:42:09.310Z,45.54
2022-08-17T07:43:09.278Z,40.11
2022-08-17T07:44:10.309Z,44.90
2022-08-17T07:45:09.226Z,40.87
2022-08-17T07:46:09.286Z,34.35
2022-08-17T07:47:09.253Z,38.06
2022-08-17T07:48:09.227Z,38.78
2022-08-17T07:49:09.245Z,38.08
2022-08-17T07:50:09.201Z,45.32
2022-08-17T07:51:09.186Z,44.55
2022-08-17T07:52:48.211Z,46.43
2022-08-17T07:53:10.150Z,37.74
2022-08-17T07:54:14.493Z,49.46
2022-08-17T07:55:11.244Z,39.39
2022-08-17T07:56:09.182Z,38.20
2022-08-17T07:57:10.168Z,40.93
2022-08-17T07:58:09.197Z,44.53
2022-08-17T07:59:09.122Z,40.22
2022-08-17T08:00:10.711Z,47.00
2022-08-17T08:01:10.094Z,38.92
2022-08-17T08:02:10.156Z,41.03
2022-08-17T08:03:09.082Z,51.64
2022-08-17T08:04:09.079Z,44.28
2022-08-17T08:05:09.118Z,42.82
2022-08-17T08:06:09.060Z,45.63
2022-08-17T08:07:09.056Z,41.00
2022-08-17T08:08:09.028Z,43.03
2022-08-17T08:09:08.993Z,46.53
2022-08-17T08:10:09.038Z,41.00
2022-08-17T08:11:09.034Z,41.14
2022-08-17T08:12:08.981Z,48.90
2022-08-17T08:13:12.243Z,35.70
2022-08-17T08:14:08.965Z,37.50
2022-08-17T08:15:08.974Z,35.74
2022-08-17T08:16:08.978Z,43.99
2022-08-17T08:17:09.422Z,33.83
2022-08-17T08:18:08.933Z,36.15
2022-08-17T08:19:08.961Z,38.25
2022-08-17T08:20:37.782Z,41.92
2022-08-17T08:21:09.938Z,40.00
2022-08-17T08:22:08.897Z,35.95
2022-08-17T08:23:08.895Z,40.73
2022-08-17T08:24:08.890Z,41.48
2022-08-17T08:25:08.896Z,35.35
2022-08-17T08:26:08.851Z,49.13
2022-08-17T08:27:08.884Z,39.95
2022-08-17T08:28:08.852Z,34.85
2022-08-17T08:29:08.856Z,44.09
2022-08-17T08:30:08.859Z,41.14
2022-08-17T08:31:08.851Z,37.80
2022-08-17T08:32:08.978Z,38.37
2022-08-17T08:33:08.770Z,43.66
2022-08-17T08:34:08.765Z,44.03
2022-08-17T08:35:09.816Z,43.31
2022-08-17T08:36:08.736Z,38.04
2022-08-17T08:37:16.283Z,40.16
2022-08-17T08:38:09.716Z,36.02
2022-08-17T08:39:09.819Z,45.59
2022-08-17T08:40:08.830Z,40.21
2022-08-17T08:41:08.792Z,35.26
2022-08-17T08:42:08.762Z,34.26
2022-08-17T08:43:08.767Z,40.12
2022-08-17T08:44:08.706Z,39.50
2022-08-17T08:45:08.711Z,40.74
2022-08-17T08:46:08.747Z,35.20
2022-08-17T08:47:08.700Z,38.50
2022-08-17T08:48:22.962Z,41.71
2022-08-17T08:49:10.253Z,33.81
2022-08-17T08:50:08.660Z,41.68
2022-08-17T08:51:09.671Z,48.55
2022-08-17T08:52:08.634Z,40.79
2022-08-17T08:53:08.605Z,35.51
2022-08-17T08:54:08.701Z,35.83
2022-08-17T08:55:08.702Z,42.90
2022-08-17T08:56:08.674Z,39.55
2022-08-17T08:57:29.213Z,46.46
2022-08-17T08:58:31.691Z,35.08
2022-08-17T08:59:09.538Z,40.07
2022-08-17T09:00:08.575Z,41.16
2022-08-17T09:01:08.575Z,41.78
2022-08-17T09:02:09.661Z,39.99
2022-08-17T09:03:08.573Z,40.60
2022-08-17T09:04:23.348Z,37.49
2022-08-17T09:05:14.304Z,48.26
2022-08-17T09:06:32.590Z,47.23
2022-08-17T09:07:09.548Z,41.60
2022-08-17T09:08:08.527Z,43.41
2022-08-17T09:09:08.468Z,35.94
2022-08-17T09:10:08.530Z,38.98
2022-08-17T09:11:08.524Z,44.45
2022-08-17T09:12:08.453Z,39.15
2022-08-17T09:13:10.097Z,40.95
2022-08-17T09:14:21.573Z,43.76
2022-08-17T09:15:12.848Z,43.89
2022-08-17T09:16:09.417Z,36.71
2022-08-17T09:17:08.477Z,34.64
2022-08-17T09:19:02.256Z,43.36
2022-08-17T09:19:10.405Z,40.00
2022-08-17T09:20:08.418Z,42.73
2022-08-17T09:21:08.418Z,40.45
2022-08-17T09:22:08.414Z,44.15
2022-08-17T09:23:08.457Z,38.45
2022-08-17T09:24:08.345Z,42.96
2022-08-17T09:25:08.392Z,37.99
2022-08-17T09:26:08.379Z,36.21
2022-08-17T09:27:08.380Z,39.72
2022-08-17T09:28:08.375Z,41.13
2022-08-17T09:29:08.319Z,36.52
2022-08-17T09:30:08.353Z,46.12
2022-08-17T09:31:08.327Z,38.06
2022-08-17T09:32:08.396Z,39.78
2022-08-17T09:33:08.261Z,45.91
2022-08-17T09:34:08.308Z,44.86
2022-08-17T09:35:08.263Z,36.07
2022-08-17T09:36:08.288Z,36.14
2022-08-17T09:37:08.240Z,38.58
2022-08-17T09:38:08.196Z,44.59
2022-08-17T09:39:08.248Z,33.86
2022-08-17T09:40:08.334Z,40.50
2022-08-17T09:41:08.216Z,42.37
2022-08-17T09:42:08.213Z,34.83
2022-08-17T09:43:08.218Z,38.70
2022-08-17T09:44:23.602Z,38.75
2022-08-17T09:45:10.191Z,33.21
2022-08-17T09:46:08.180Z,39.73
2022-08-17T09:47:08.205Z,32.69
2022-08-17T09:48:08.179Z,38.94
2022-08-17T09:49:08.132Z,41.11
2022-08-17T09:50:08.213Z,43.71
2022-08-17T09:51:08.146Z,43.60
2022-08-17T09:52:08.206Z,40.79
2022-08-17T09:53:08.120Z,42.05
2022-08-17T09:54:36.945Z,41.70
2022-08-17T09:55:10.106Z,39.51
2022-08-17T09:56:08.134Z,39.15
2022-08-17T09:57:28.552Z,39.09
2022-08-17T09:58:10.064Z,40.66
2022-08-17T09:59:08.062Z,34.02
2022-08-17T10:00:08.041Z,35.43
2022-08-17T10:01:08.141Z,37.64
2022-08-17T10:02:08.052Z,44.46
2022-08-17T10:03:09.067Z,42.18
2022-08-17T10:04:08.036Z,41.55
2022-08-17T10:05:08.020Z,41.48
2022-08-17T10:06:08.003Z,36.83
2022-08-17T10:07:08.043Z,33.18
2022-08-17T10:08:07.948Z,39.03
2022-08-17T10:09:07.981Z,42.23
2022-08-17T10:10:12.153Z,46.31
2022-08-17T10:11:09.966Z,33.78
2022-08-17T10:12:09.266Z,39.08
2022-08-17T10:13:09.540Z,40.60
2022-08-17T10:14:36.535Z,36.78
2022-08-17T10:15:09.541Z,43.36
2022-08-17T10:16:07.894Z,41.08
2022-08-17T10:17:07.888Z,45.31
2022-08-17T10:18:07.891Z,40.86
2022-08-17T10:19:07.868Z,46.66
2022-08-17T10:20:07.869Z,37.67
2022-08-17T10:21:07.890Z,43.20
2022-08-17T10:22:14.614Z,41.09
2022-08-17T10:23:08.833Z,41.15
2022-08-17T10:24:07.846Z,41.15
2022-08-17T10:25:22.793Z,34.73
2022-08-17T10:26:08.818Z,36.41
2022-08-17T10:27:07.827Z,42.42
2022-08-17T10:28:09.800Z,38.19
2022-08-17T10:29:08.761Z,36.96
2022-08-17T10:30:07.807Z,33.71
2022-08-17T10:31:33.794Z,42.17
2022-08-17T10:32:09.730Z,44.83
2022-08-17T10:33:07.743Z,47.48
2022-08-17T10:34:07.704Z,44.62
2022-08-17T10:35:07.714Z,40.67
2022-08-17T10:36:10.812Z,39.29
2022-08-17T10:37:09.045Z,40.75
2022-08-17T10:38:07.734Z,46.66
2022-08-17T10:39:07.725Z,38.17
2022-08-17T10:40:07.814Z,38.49
2022-08-17T10:41:07.689Z,39.33
2022-08-17T10:42:07.715Z,45.00
2022-08-17T10:43:08.673Z,42.63
2022-08-17T10:44:40.272Z,45.07
2022-08-17T10:45:08.640Z,40.13
2022-08-17T10:46:10.581Z,36.90
2022-08-17T10:47:08.670Z,48.43
2022-08-17T10:48:07.883Z,37.15
2022-08-17T10:49:07.604Z,40.84
2022-08-17T10:50:07.573Z,35.85
2022-08-17T10:51:07.635Z,39.22
2022-08-17T10:52:07.609Z,43.48
2022-08-17T10:53:07.580Z,43.24
2022-08-17T10:54:07.576Z,43.09
2022-08-17T10:55:07.549Z,50.76
2022-08-17T10:56:07.568Z,37.05
2022-08-17T10:57:07.578Z,44.70
2022-08-17T10:58:07.523Z,41.61
2022-08-17T10:59:07.524Z,37.40
2022-08-17T11:00:07.515Z,44.17
2022-08-17T11:01:07.607Z,41.70
2022-08-17T11:02:07.505Z,44.19
2022-08-17T11:03:07.559Z,39.34
2022-08-17T11:04:07.480Z,37.91
2022-08-17T11:05:07.464Z,47.57
2022-08-17T11:06:07.490Z,43.73
2022-08-17T11:07:07.453Z,39.63
2022-08-17T11:08:07.441Z,44.43
2022-08-17T11:09:07.483Z,44.92
2022-08-17T11:10:07.426Z,39.20
2022-08-17T11:11:07.471Z,41.42
2022-08-17T11:12:07.451Z,35.86
2022-08-17T11:13:07.421Z,41.47
2022-08-17T11:14:07.376Z,44.04
2022-08-17T11:15:07.391Z,43.22
2022-08-17T11:16:08.556Z,43.69
2022-08-17T11:17:08.410Z,37.48
2022-08-17T11:18:07.378Z,44.23
2022-08-17T11:19:07.331Z,44.25
2022-08-17T11:20:07.329Z,41.95
2022-08-17T11:21:07.356Z,40.29
2022-08-17T11:22:07.307Z,40.69
2022-08-17T11:23:07.373Z,41.99
2022-08-17T11:24:07.310Z,46.16
2022-08-17T11:25:07.316Z,41.65
2022-08-17T11:26:07.264Z,41.94
2022-08-17T11:27:07.328Z,45.27
2022-08-17T11:28:07.264Z,38.70
2022-08-17T11:29:07.273Z,40.70
2022-08-17T11:30:07.248Z,35.71
2022-08-17T11:31:07.527Z,43.21
2022-08-17T11:32:07.262Z,42.50
2022-08-17T11:33:07.329Z,48.53
2022-08-17T11:34:07.269Z,41.81
2022-08-17T11:35:07.219Z,42.62
2022-08-17T11:36:07.200Z,47.65
2022-08-17T11:37:07.169Z,39.87
2022-08-17T11:38:10.836Z,36.12
2022-08-17T11:39:09.227Z,35.52
2022-08-17T11:40:07.292Z,37.90
2022-08-17T11:41:07.180Z,45.40
2022-08-17T11:42:08.171Z,40.18
2022-08-17T11:43:07.118Z,43.57
2022-08-17T11:44:07.109Z,44.87
2022-08-17T11:45:07.122Z,36.78
2022-08-17T11:46:07.087Z,41.68
2022-08-17T11:47:07.120Z,41.67
2022-08-17T11:48:27.401Z,46.96
2022-08-17T11:49:09.088Z,41.50
2022-08-17T11:50:07.061Z,37.05
2022-08-17T11:51:07.029Z,48.55
2022-08-17T11:52:08.067Z,44.32
2022-08-17T11:53:07.124Z,40.07
2022-08-17T11:54:32.805Z,43.45
2022-08-17T11:55:34.125Z,44.22
2022-08-17T11:56:08.994Z,45.67
2022-08-17T11:57:06.995Z,40.32
2022-08-17T11:58:06.967Z,34.79
2022-08-17T11:59:07.004Z,37.12
2022-08-17T12:00:06.960Z,46.25
2022-08-17T12:01:06.971Z,40.20
2022-08-17T12:02:06.971Z,40.25
2022-08-17T12:03:07.024Z,40.63
2022-08-17T12:04:07.014Z,34.62
2022-08-17T12:05:12.093Z,46.08
2022-08-17T12:06:07.944Z,40.66
2022-08-17T12:07:06.975Z,39.91
2022-08-17T12:08:06.955Z,39.44
2022-08-17T12:09:06.948Z,43.17
2022-08-17T12:10:06.951Z,41.19
2022-08-17T12:11:06.935Z,37.52
2022-08-17T12:12:12.818Z,34.93
2022-08-17T12:13:07.977Z,43.23
2022-08-17T12:14:06.889Z,40.68
2022-08-17T12:15:10.724Z,36.90
2022-08-17T12:16:07.842Z,48.43
2022-08-17T12:17:06.909Z,46.62
2022-08-17T12:18:06.849Z,41.98
2022-08-17T12:19:06.810Z,44.61
2022-08-17T12:20:06.838Z,46.91
2022-08-17T12:21:06.937Z,54.07
2022-08-17T12:22:06.929Z,42.44
2022-08-17T12:23:06.823Z,42.40
2022-08-17T12:24:06.743Z,40.12
2022-08-17T12:25:06.793Z,36.89
2022-08-17T12:26:06.746Z,40.00
2022-08-17T12:27:06.752Z,40.95
2022-08-17T12:28:07.799Z,47.81
2022-08-17T12:29:09.263Z,40.36
2022-08-17T12:30:07.726Z,40.42
2022-08-17T12:31:06.769Z,38.80
2022-08-17T12:32:06.730Z,40.16
2022-08-17T12:33:06.748Z,46.56
2022-08-17T12:34:06.694Z,44.38
2022-08-17T12:35:06.690Z,41.94
2022-08-17T12:36:06.721Z,40.47
2022-08-17T12:37:06.697Z,40.64
2022-08-17T12:38:06.676Z,48.72
2022-08-17T12:39:13.985Z,40.01
2022-08-17T12:40:07.704Z,38.45
2022-08-17T12:41:07.651Z,42.60
2022-08-17T12:42:06.654Z,39.66
2022-08-17T12:43:06.639Z,43.32
2022-08-17T12:44:06.595Z,40.40
2022-08-17T12:45:06.576Z,44.90
2022-08-17T12:46:13.117Z,39.00
2022-08-17T12:47:07.588Z,36.85
2022-08-17T12:48:06.562Z,42.76
2022-08-17T12:49:06.543Z,46.71
2022-08-17T12:50:06.566Z,49.00
2022-08-17T12:51:06.539Z,42.02
2022-08-17T12:52:06.586Z,43.26